Time;durP1;ratioP1;P1;durP2;ratioP2;P2;SDS_P1;SDS_P2;PMS_P1;PMS_P2;Temp;Humidity;BMP_temperature;BMP_pressure;BME280_temperature;BME280_humidity;BME280_pressure;Samples;Min_cycle;Max_cycle;Signal;HPM_P1;HPM_P2
2021/06/14 00:01:37;;;;;;;;;;;12.80;99.90;;;;;;4965704;28;19937;-66
2021/06/14 00:04:26;;;;;;;;;;;12.80;99.90;;;;;;4969710;28;20020;-66
2021/06/14 00:07:17;;;;;;;;;;;12.70;99.90;;;;;;4964377;28;20285;-66
2021/06/14 00:10:07;;;;;;;;;;;12.60;99.90;;;;;;4968934;28;19937;-66
2021/06/14 00:12:55;;;;;;;;;;;12.60;99.90;;;;;;4953445;28;20441;-67
2021/06/14 00:15:45;;;;;;;;;;;12.60;99.90;;;;;;4960800;28;20012;-66
2021/06/14 00:18:34;;;;;;;;;;;12.60;99.90;;;;;;4965028;28;20282;-67
2021/06/14 00:21:23;;;;;;;;;;;12.50;99.90;;;;;;4970897;28;19926;-67
2021/06/14 00:24:13;;;;;;;;;;;12.50;99.90;;;;;;4969473;28;19926;-66
2021/06/14 00:27:03;;;;;;;;;;;12.60;99.90;;;;;;4966621;28;20016;-68
2021/06/14 00:29:52;;;;;;;;;;;12.60;99.90;;;;;;4973289;28;19930;-66
2021/06/14 00:32:40;;;;;;;;;;;12.50;99.90;;;;;;4957621;28;19926;-67
2021/06/14 00:35:29;;;;;;;;;;;12.50;99.90;;;;;;4958043;28;19969;-66
2021/06/14 00:38:18;;;;;;;;;;;12.50;99.90;;;;;;4968897;28;19929;-67
2021/06/14 00:41:11;;;;;;;;;;;12.50;99.90;;;;;;4970728;28;20405;-66
2021/06/14 00:44:05;;;;;;;;;;;12.40;99.90;;;;;;4969667;28;19926;-66
2021/06/14 00:46:54;;;;;;;;;;;12.40;99.90;;;;;;4943365;28;19926;-66
2021/06/14 00:52:55;;;;;;;;;;;12.30;99.90;;;;;;4968925;28;19930;-66
2021/06/14 00:55:44;;;;;;;;;;;12.20;99.90;;;;;;4956717;28;19937;-67
2021/06/14 00:58:35;;;;;;;;;;;12.20;99.90;;;;;;4958527;28;20398;-66
2021/06/14 01:01:24;;;;;;;;;;;12.10;99.90;;;;;;4947336;28;20013;-66
2021/06/14 01:04:17;;;;;;;;;;;12.00;99.90;;;;;;4959123;28;19970;-66
2021/06/14 01:07:09;;;;;;;;;;;11.90;99.90;;;;;;4972514;28;19934;-67
2021/06/14 01:09:58;;;;;;;;;;;11.80;99.90;;;;;;4965087;28;19926;-66
2021/06/14 01:12:52;;;;;;;;;;;11.70;99.90;;;;;;4958777;28;20465;-66
2021/06/14 01:15:52;;;;;;;;;;;11.70;99.90;;;;;;4965596;28;19926;-68
2021/06/14 01:18:44;;;;;;;;;;;11.70;99.90;;;;;;4957185;28;20271;-66
2021/06/14 01:21:35;;;;;;;;;;;11.70;99.90;;;;;;4955752;28;19933;-69
2021/06/14 01:24:43;;;;;;;;;;;11.60;99.90;;;;;;4966308;28;19936;-66
2021/06/14 01:27:45;;;;;;;;;;;11.60;99.90;;;;;;4967072;28;19926;-66
2021/06/14 01:30:41;;;;;;;;;;;11.50;99.90;;;;;;4950480;28;19926;-66
2021/06/14 01:33:36;;;;;;;;;;;11.50;99.90;;;;;;4969886;28;19927;-66
2021/06/14 01:36:26;;;;;;;;;;;11.50;99.90;;;;;;4962610;28;19930;-66
2021/06/14 01:39:14;;;;;;;;;;;11.50;99.90;;;;;;4970289;28;19937;-66
2021/06/14 01:42:31;;;;;;;;;;;11.40;99.90;;;;;;4970248;28;20020;-67
2021/06/14 01:45:23;;;;;;;;;;;11.40;99.90;;;;;;4955275;28;20050;-66
2021/06/14 01:48:13;;;;;;;;;;;11.40;99.90;;;;;;4959595;28;19986;-67
2021/06/14 01:51:03;;;;;;;;;;;11.50;99.90;;;;;;4970712;28;20271;-66
2021/06/14 01:54:06;;;;;;;;;;;11.50;99.90;;;;;;4965137;28;19930;-65
2021/06/14 01:57:16;;;;;;;;;;;11.40;99.90;;;;;;4963918;28;20017;-67
2021/06/14 02:00:15;;;;;;;;;;;11.40;99.90;;;;;;4961767;28;20305;-66
2021/06/14 02:03:17;;;;;;;;;;;11.30;99.90;;;;;;4968586;28;20498;-66
2021/06/14 02:06:09;;;;;;;;;;;11.20;99.90;;;;;;4948892;28;20299;-65
2021/06/14 02:08:59;;;;;;;;;;;11.20;99.90;;;;;;4971139;28;20405;-66
2021/06/14 02:11:50;;;;;;;;;;;11.10;99.90;;;;;;4972202;28;19934;-66
2021/06/14 02:14:40;;;;;;;;;;;11.00;99.90;;;;;;4969089;28;19962;-66
2021/06/14 02:17:31;;;;;;;;;;;11.00;99.90;;;;;;4957949;28;20370;-66
2021/06/14 02:20:21;;;;;;;;;;;11.00;99.90;;;;;;4973056;28;19980;-66
2021/06/14 02:23:11;;;;;;;;;;;11.00;99.90;;;;;;4971583;28;20298;-66
2021/06/14 02:26:00;;;;;;;;;;;11.00;99.90;;;;;;4961835;28;19926;-68
2021/06/14 02:28:52;;;;;;;;;;;10.90;99.90;;;;;;4966425;28;19926;-66
2021/06/14 02:31:41;;;;;;;;;;;10.90;99.90;;;;;;4957332;28;20020;-66
2021/06/14 02:34:33;;;;;;;;;;;10.80;99.90;;;;;;4963536;28;19936;-66
2021/06/14 02:37:24;;;;;;;;;;;10.80;99.90;;;;;;4966295;28;20095;-67
2021/06/14 02:40:13;;;;;;;;;;;10.70;99.90;;;;;;4965421;28;20056;-66
2021/06/14 02:43:04;;;;;;;;;;;10.70;99.90;;;;;;4962809;28;20378;-66
2021/06/14 02:45:53;;;;;;;;;;;10.70;99.90;;;;;;4969091;28;19933;-66
2021/06/14 02:48:53;;;;;;;;;;;10.70;99.90;;;;;;4964277;28;19965;-67
2021/06/14 02:51:43;;;;;;;;;;;10.70;99.90;;;;;;4977774;28;19926;-66
2021/06/14 02:54:36;;;;;;;;;;;10.70;99.90;;;;;;4978060;28;20001;-69
2021/06/14 02:57:28;;;;;;;;;;;10.60;99.90;;;;;;4978546;28;19930;-66
2021/06/14 03:00:17;;;;;;;;;;;10.60;99.90;;;;;;4954025;28;19934;-66
2021/06/14 03:03:06;;;;;;;;;;;10.50;99.90;;;;;;4974512;28;19930;-67
2021/06/14 03:05:57;;;;;;;;;;;10.50;99.90;;;;;;4969349;28;19930;-66
2021/06/14 03:08:49;;;;;;;;;;;10.50;99.90;;;;;;4973665;28;19934;-67
2021/06/14 03:11:40;;;;;;;;;;;10.50;99.90;;;;;;4975669;28;19941;-68
2021/06/14 03:14:58;;;;;;;;;;;10.40;99.90;;;;;;4960412;28;20433;-66
2021/06/14 03:17:47;;;;;;;;;;;10.30;99.90;;;;;;4961789;28;20371;-66
2021/06/14 03:20:37;;;;;;;;;;;10.30;99.90;;;;;;4970691;28;20041;-65
2021/06/14 03:23:26;;;;;;;;;;;10.30;99.90;;;;;;4969689;28;19930;-66
2021/06/14 03:26:15;;;;;;;;;;;10.40;99.90;;;;;;4956733;28;19925;-66
2021/06/14 03:29:06;;;;;;;;;;;10.30;99.90;;;;;;4972068;28;19977;-69
2021/06/14 03:31:54;;;;;;;;;;;10.30;99.90;;;;;;4955159;28;19926;-67
2021/06/14 03:34:43;;;;;;;;;;;10.30;99.90;;;;;;4972654;28;19927;-65
2021/06/14 03:37:33;;;;;;;;;;;10.30;99.90;;;;;;4968692;28;19946;-66
2021/06/14 03:40:22;;;;;;;;;;;10.30;99.90;;;;;;4967571;28;20282;-66
2021/06/14 03:43:11;;;;;;;;;;;10.40;99.90;;;;;;4970450;28;19927;-66
2021/06/14 03:46:01;;;;;;;;;;;10.40;99.90;;;;;;4965554;28;19926;-68
2021/06/14 03:48:50;;;;;;;;;;;10.50;99.90;;;;;;4972849;28;19926;-66
2021/06/14 03:51:39;;;;;;;;;;;10.60;99.90;;;;;;4970021;28;19930;-66
2021/06/14 03:54:27;;;;;;;;;;;10.60;99.90;;;;;;4973445;28;19997;-66
2021/06/14 03:57:16;;;;;;;;;;;10.60;99.90;;;;;;4972774;28;20306;-66
2021/06/14 04:00:06;;;;;;;;;;;10.60;99.90;;;;;;4962087;28;19937;-65
2021/06/14 04:03:02;;;;;;;;;;;10.60;99.90;;;;;;4967546;28;19930;-66
2021/06/14 04:06:02;;;;;;;;;;;10.60;99.90;;;;;;4971657;28;19926;-65
2021/06/14 04:08:57;;;;;;;;;;;10.70;99.90;;;;;;4970984;28;19998;-66
2021/06/14 04:11:46;;;;;;;;;;;10.90;99.90;;;;;;4972834;28;19926;-66
2021/06/14 04:14:42;;;;;;;;;;;11.00;99.90;;;;;;4968136;28;19930;-67
2021/06/14 04:17:32;;;;;;;;;;;11.10;99.90;;;;;;4965234;28;19926;-66
2021/06/14 04:20:22;;;;;;;;;;;11.20;99.90;;;;;;4972957;28;19926;-67
2021/06/14 04:23:10;;;;;;;;;;;11.30;99.90;;;;;;4956874;28;20021;-66
2021/06/14 04:25:59;;;;;;;;;;;11.40;99.90;;;;;;4956922;28;20009;-66
2021/06/14 04:28:47;;;;;;;;;;;11.40;99.90;;;;;;4958567;28;20429;-66
2021/06/14 04:31:36;;;;;;;;;;;11.50;99.90;;;;;;4963634;28;19934;-66
2021/06/14 04:34:24;;;;;;;;;;;11.50;99.90;;;;;;4973693;28;19980;-67
2021/06/14 04:37:14;;;;;;;;;;;11.70;99.90;;;;;;4968036;28;20342;-66
2021/06/14 04:40:04;;;;;;;;;;;11.80;99.90;;;;;;4970132;28;19933;-66
2021/06/14 04:42:53;;;;;;;;;;;11.90;99.90;;;;;;4968373;28;19937;-67
2021/06/14 04:45:45;;;;;;;;;;;12.00;99.90;;;;;;4962953;28;19972;-66
2021/06/14 04:48:34;;;;;;;;;;;12.10;99.90;;;;;;4970088;28;19926;-68
2021/06/14 04:51:22;;;;;;;;;;;12.20;99.90;;;;;;4958777;28;19926;-66
2021/06/14 04:54:13;;;;;;;;;;;12.20;99.90;;;;;;4957524;28;19926;-66
2021/06/14 04:57:01;;;;;;;;;;;12.30;99.90;;;;;;4969407;28;19933;-66
2021/06/14 04:59:52;;;;;;;;;;;12.40;99.90;;;;;;4949730;28;21477;-66
2021/06/14 05:02:40;;;;;;;;;;;12.50;99.90;;;;;;4952668;29;19927;-66
2021/06/14 05:05:29;;;;;;;;;;;12.70;99.90;;;;;;4938246;29;20013;-66
2021/06/14 05:08:19;;;;;;;;;;;12.80;99.90;;;;;;4940847;28;20061;-67
2021/06/14 05:11:13;;;;;;;;;;;12.90;99.90;;;;;;4953590;29;20028;-67
2021/06/14 05:14:02;;;;;;;;;;;13.10;99.90;;;;;;4954633;28;19934;-67
2021/06/14 05:16:50;;;;;;;;;;;13.30;99.90;;;;;;4946470;28;20276;-67
2021/06/14 05:19:39;;;;;;;;;;;13.40;99.90;;;;;;4955446;28;19965;-68
2021/06/14 05:22:28;;;;;;;;;;;13.50;99.90;;;;;;4949434;29;19933;-69
2021/06/14 05:25:17;;;;;;;;;;;13.60;99.90;;;;;;4953897;29;19927;-67
2021/06/14 05:28:07;;;;;;;;;;;13.80;99.90;;;;;;4949296;28;19926;-66
2021/06/14 05:30:55;;;;;;;;;;;14.00;99.90;;;;;;4948605;28;19931;-66
2021/06/14 05:33:46;;;;;;;;;;;14.20;99.90;;;;;;4966992;28;19926;-66
2021/06/14 05:36:35;;;;;;;;;;;14.50;99.90;;;;;;4941102;28;19926;-67
2021/06/14 05:39:23;;;;;;;;;;;14.50;99.90;;;;;;4943135;28;19933;-68
2021/06/14 05:42:37;;;;;;;;;;;14.50;99.90;;;;;;4958001;28;19927;-69
2021/06/14 05:45:28;;;;;;;;;;;14.50;99.90;;;;;;4932708;28;19930;-66
2021/06/14 05:48:17;;;;;;;;;;;14.50;99.90;;;;;;4953550;29;19933;-67
2021/06/14 05:51:06;;;;;;;;;;;14.50;99.90;;;;;;4952916;28;20028;-65
2021/06/14 05:53:56;;;;;;;;;;;14.80;99.90;;;;;;4960179;28;19926;-68
2021/06/14 05:56:45;;;;;;;;;;;14.80;99.90;;;;;;4963381;28;19936;-66
2021/06/14 05:59:34;;;;;;;;;;;14.70;99.90;;;;;;4970200;28;19969;-67
2021/06/14 06:02:24;;;;;;;;;;;14.90;99.90;;;;;;4966982;28;20390;-64
2021/06/14 06:05:13;;;;;;;;;;;15.20;99.90;;;;;;4974906;28;19932;-65
2021/06/14 06:08:02;;;;;;;;;;;15.70;99.90;;;;;;4976365;28;20057;-65
2021/06/14 06:10:52;;;;;;;;;;;15.70;99.90;;;;;;4977943;28;19933;-67
2021/06/14 06:13:40;;;;;;;;;;;15.80;99.90;;;;;;4978013;28;20493;-66
2021/06/14 06:16:29;;;;;;;;;;;15.90;99.90;;;;;;4971235;28;20397;-67
2021/06/14 06:19:19;;;;;;;;;;;15.90;99.90;;;;;;4977939;28;19934;-66
2021/06/14 06:22:08;;;;;;;;;;;16.00;99.90;;;;;;4978048;28;20425;-67
2021/06/14 06:24:59;;;;;;;;;;;16.10;99.90;;;;;;4978252;28;19965;-67
2021/06/14 06:27:50;;;;;;;;;;;16.40;99.90;;;;;;4978331;28;19926;-67
2021/06/14 06:30:39;;;;;;;;;;;16.40;99.80;;;;;;4955355;28;19998;-66
2021/06/14 06:33:28;;;;;;;;;;;16.30;99.30;;;;;;4975047;28;19933;-65
2021/06/14 06:36:18;;;;;;;;;;;16.40;99.00;;;;;;4957494;28;20078;-65
2021/06/14 06:39:06;;;;;;;;;;;16.60;99.40;;;;;;4970489;28;19933;-66
2021/06/14 06:42:20;;;;;;;;;;;16.70;98.70;;;;;;4971702;28;20029;-65
2021/06/14 06:45:10;;;;;;;;;;;16.60;98.40;;;;;;4956543;28;19941;-68
2021/06/14 06:47:59;;;;;;;;;;;16.70;98.00;;;;;;4967341;28;19926;-66
2021/06/14 06:50:53;;;;;;;;;;;16.80;97.90;;;;;;4978733;28;19926;-66
2021/06/14 06:53:44;;;;;;;;;;;17.40;97.80;;;;;;4977249;28;19930;-66
2021/06/14 06:56:32;;;;;;;;;;;17.80;96.00;;;;;;4978163;28;20012;-67
2021/06/14 06:59:21;;;;;;;;;;;18.00;94.70;;;;;;4974254;28;19930;-67
2021/06/14 07:02:10;;;;;;;;;;;18.80;93.40;;;;;;4971327;28;20330;-67
2021/06/14 07:04:59;;;;;;;;;;;19.80;91.20;;;;;;4961348;28;19930;-67
2021/06/14 07:07:48;;;;;;;;;;;20.90;88.30;;;;;;4959135;28;19934;-68
2021/06/14 07:10:38;;;;;;;;;;;20.60;84.60;;;;;;4975365;28;19926;-66
2021/06/14 07:13:27;;;;;;;;;;;20.20;86.20;;;;;;4976600;28;20450;-68
2021/06/14 07:16:18;;;;;;;;;;;20.30;81.60;;;;;;4968798;28;19926;-66
2021/06/14 07:19:07;;;;;;;;;;;20.30;83.10;;;;;;4977485;28;19926;-67
2021/06/14 07:21:56;;;;;;;;;;;21.70;78.10;;;;;;4978055;28;20028;-67
2021/06/14 07:24:45;;;;;;;;;;;21.80;76.50;;;;;;4979718;28;20318;-67
2021/06/14 07:27:35;;;;;;;;;;;23.20;75.90;;;;;;4984726;28;19964;-68
2021/06/14 07:30:36;;;;;;;;;;;25.00;70.30;;;;;;4970255;28;19941;-67
2021/06/14 07:33:25;;;;;;;;;;;26.20;61.90;;;;;;4974982;28;20032;-67
2021/06/14 07:36:13;;;;;;;;;;;25.80;59.20;;;;;;4969524;28;19926;-68
2021/06/14 07:39:02;;;;;;;;;;;25.90;60.00;;;;;;4956102;28;20369;-67
2021/06/14 07:42:18;;;;;;;;;;;25.20;59.10;;;;;;4975927;28;20401;-67
2021/06/14 07:45:09;;;;;;;;;;;25.20;57.20;;;;;;4973413;28;19933;-68
2021/06/14 07:47:57;;;;;;;;;;;24.70;58.50;;;;;;4960839;28;19927;-67
2021/06/14 07:50:54;;;;;;;;;;;25.30;58.60;;;;;;4971943;28;19926;-68
2021/06/14 07:53:43;;;;;;;;;;;26.70;56.20;;;;;;4971250;28;20328;-67
2021/06/14 07:56:43;;;;;;;;;;;27.50;54.30;;;;;;4967282;28;20405;-67
2021/06/14 07:59:32;;;;;;;;;;;27.10;53.30;;;;;;4968539;28;20315;-67
2021/06/14 08:02:47;;;;;;;;;;;25.60;54.20;;;;;;4968425;28;19933;-68
2021/06/14 08:05:36;;;;;;;;;;;27.00;53.50;;;;;;4971096;28;20272;-68
2021/06/14 08:08:33;;;;;;;;;;;26.60;53.10;;;;;;4966000;28;21146;-68
2021/06/14 08:11:23;;;;;;;;;;;24.80;55.50;;;;;;4968674;28;19934;-67
2021/06/14 08:14:12;;;;;;;;;;;25.30;56.40;;;;;;4956148;28;20016;-67
2021/06/14 08:17:03;;;;;;;;;;;28.60;53.90;;;;;;4948840;28;19926;-68
2021/06/14 08:19:56;;;;;;;;;;;27.20;51.40;;;;;;4970789;28;19930;-67
2021/06/14 08:25:52;;;;;;;;;;;29.00;50.00;;;;;;4972980;28;20390;-66
2021/06/14 08:28:41;;;;;;;;;;;30.60;42.50;;;;;;4970542;28;20505;-67
2021/06/14 08:31:30;;;;;;;;;;;28.20;47.20;;;;;;4963862;28;19926;-66
2021/06/14 08:34:19;;;;;;;;;;;27.70;49.10;;;;;;4963637;28;19933;-67
2021/06/14 08:37:10;;;;;;;;;;;26.70;50.30;;;;;;4974183;28;20350;-67
2021/06/14 08:39:59;;;;;;;;;;;25.50;51.10;;;;;;4971459;28;19934;-67
2021/06/14 08:42:47;;;;;;;;;;;27.00;51.40;;;;;;4966836;28;19926;-66
2021/06/14 08:45:37;;;;;;;;;;;27.30;50.00;;;;;;4961951;28;19926;-66
2021/06/14 08:48:27;;;;;;;;;;;27.70;48.20;;;;;;4953604;28;19973;-67
2021/06/14 08:51:15;;;;;;;;;;;28.10;47.30;;;;;;4970584;28;19926;-66
2021/06/14 08:54:07;;;;;;;;;;;27.30;49.70;;;;;;4972713;28;19926;-68
2021/06/14 08:56:56;;;;;;;;;;;28.30;48.80;;;;;;4970851;28;19934;-67
2021/06/14 08:59:45;;;;;;;;;;;27.60;46.80;;;;;;4973148;28;19932;-67
2021/06/14 09:02:34;;;;;;;;;;;26.80;48.30;;;;;;4972271;28;19926;-67
2021/06/14 09:05:24;;;;;;;;;;;26.80;49.30;;;;;;4971044;28;19977;-67
2021/06/14 09:08:12;;;;;;;;;;;26.70;49.70;;;;;;4964978;28;19973;-69
2021/06/14 09:14:16;;;;;;;;;;;26.50;47.00;;;;;;4972574;28;19926;-67
2021/06/14 09:17:05;;;;;;;;;;;28.40;48.30;;;;;;4967229;28;19926;-67
2021/06/14 09:19:56;;;;;;;;;;;30.20;43.60;;;;;;4938353;28;19934;-67
2021/06/14 09:22:44;;;;;;;;;;;27.50;46.00;;;;;;4961795;28;19993;-68
2021/06/14 09:25:33;;;;;;;;;;;28.70;47.10;;;;;;4955090;28;20256;-67
2021/06/14 09:28:23;;;;;;;;;;;28.00;47.50;;;;;;4970461;28;19930;-67
2021/06/14 09:31:15;;;;;;;;;;;28.40;47.70;;;;;;4942730;28;20287;-67
2021/06/14 09:34:04;;;;;;;;;;;27.20;49.00;;;;;;4973301;28;19932;-68
2021/06/14 09:36:57;;;;;;;;;;;26.20;50.30;;;;;;4973131;28;20287;-67
2021/06/14 09:39:46;;;;;;;;;;;26.80;50.00;;;;;;4969474;28;20017;-66
2021/06/14 09:42:40;;;;;;;;;;;26.40;51.00;;;;;;4971999;28;19974;-67
2021/06/14 09:45:31;;;;;;;;;;;25.70;49.60;;;;;;4966386;28;19937;-67
2021/06/14 09:48:20;;;;;;;;;;;25.30;52.40;;;;;;4971810;28;19926;-66
2021/06/14 09:51:09;;;;;;;;;;;24.20;53.50;;;;;;4969387;28;19950;-66
2021/06/14 09:53:58;;;;;;;;;;;23.90;54.60;;;;;;4974042;28;20013;-67
2021/06/14 09:56:53;;;;;;;;;;;23.80;56.30;;;;;;4971417;28;19926;-66
2021/06/14 09:59:41;;;;;;;;;;;24.30;55.90;;;;;;4970523;28;19926;-67
2021/06/14 10:02:35;;;;;;;;;;;23.80;55.70;;;;;;4967966;28;19927;-67
2021/06/14 10:05:24;;;;;;;;;;;24.00;56.20;;;;;;4974745;28;19937;-66
2021/06/14 10:08:13;;;;;;;;;;;23.50;56.80;;;;;;4970773;28;19926;-67
2021/06/14 10:14:17;;;;;;;;;;;23.20;56.00;;;;;;4972097;28;20449;-68
2021/06/14 10:17:06;;;;;;;;;;;23.70;59.20;;;;;;4956737;28;20378;-67
2021/06/14 10:19:56;;;;;;;;;;;23.30;58.70;;;;;;4969637;28;19934;-67
2021/06/14 10:22:45;;;;;;;;;;;23.70;59.90;;;;;;4976307;28;20587;-67
2021/06/14 10:25:57;;;;;;;;;;;25.10;57.20;;;;;;4971757;28;19937;-67
2021/06/14 10:28:45;;;;;;;;;;;28.50;50.00;;;;;;4970020;28;19926;-66
2021/06/14 10:31:36;;;;;;;;;;;26.80;48.90;;;;;;4964973;28;19933;-67
2021/06/14 10:34:26;;;;;;;;;;;25.70;51.80;;;;;;4963374;28;19934;-67
2021/06/14 10:37:16;;;;;;;;;;;24.70;53.80;;;;;;4968847;28;19941;-66
2021/06/14 10:40:06;;;;;;;;;;;24.70;53.60;;;;;;4969397;28;20398;-66
2021/06/14 10:42:55;;;;;;;;;;;23.70;55.20;;;;;;4971988;28;19930;-66
2021/06/14 10:45:44;;;;;;;;;;;23.40;57.20;;;;;;4967543;28;19937;-65
2021/06/14 10:48:33;;;;;;;;;;;23.20;57.30;;;;;;4960398;28;20283;-67
2021/06/14 10:51:25;;;;;;;;;;;23.70;58.00;;;;;;4969036;28;20401;-67
2021/06/14 10:54:17;;;;;;;;;;;23.80;57.40;;;;;;4975249;28;19930;-68
2021/06/14 10:57:07;;;;;;;;;;;23.80;57.30;;;;;;4976152;28;19926;-67
2021/06/14 10:59:55;;;;;;;;;;;23.60;55.90;;;;;;4972911;28;19930;-66
2021/06/14 11:02:50;;;;;;;;;;;23.20;55.80;;;;;;4981732;28;19937;-66
2021/06/14 11:05:41;;;;;;;;;;;23.80;55.80;;;;;;4971842;28;20017;-67
2021/06/14 11:08:30;;;;;;;;;;;24.70;53.90;;;;;;4974427;28;19957;-66
2021/06/14 11:11:21;;;;;;;;;;;24.60;54.80;;;;;;4975707;28;19930;-67
2021/06/14 11:14:09;;;;;;;;;;;23.50;54.90;;;;;;4972059;28;20466;-66
2021/06/14 11:16:59;;;;;;;;;;;23.90;57.50;;;;;;4969390;28;19926;-66
2021/06/14 11:19:49;;;;;;;;;;;24.40;55.70;;;;;;4959107;28;19926;-67
2021/06/14 11:22:39;;;;;;;;;;;24.50;54.60;;;;;;4977646;28;19926;-67
2021/06/14 11:25:30;;;;;;;;;;;23.80;55.60;;;;;;4978697;28;19940;-66
2021/06/14 11:28:35;;;;;;;;;;;23.90;57.50;;;;;;4957508;28;20416;-66
2021/06/14 11:31:24;;;;;;;;;;;24.10;57.20;;;;;;4965351;28;19926;-65
2021/06/14 11:34:21;;;;;;;;;;;24.10;56.80;;;;;;4986224;28;19933;-66
2021/06/14 11:37:10;;;;;;;;;;;24.10;56.20;;;;;;4973380;28;20051;-67
2021/06/14 11:39:59;;;;;;;;;;;24.00;56.40;;;;;;4974640;28;19926;-67
2021/06/14 11:42:49;;;;;;;;;;;23.80;55.90;;;;;;4971879;28;20385;-66
2021/06/14 11:45:41;;;;;;;;;;;23.50;56.00;;;;;;4966908;28;19926;-69
2021/06/14 11:48:31;;;;;;;;;;;23.60;57.10;;;;;;4969752;28;20029;-67
2021/06/14 11:51:20;;;;;;;;;;;24.20;57.00;;;;;;4973107;28;19949;-67
2021/06/14 11:54:09;;;;;;;;;;;24.40;57.70;;;;;;4974821;28;19934;-67
2021/06/14 11:57:00;;;;;;;;;;;23.90;55.90;;;;;;4970134;28;19961;-67
2021/06/14 11:59:52;;;;;;;;;;;23.80;57.30;;;;;;4949258;29;19932;-68
2021/06/14 12:02:42;;;;;;;;;;;23.90;57.40;;;;;;4952517;29;19933;-67
2021/06/14 12:05:32;;;;;;;;;;;24.10;57.10;;;;;;4960709;28;20437;-66
2021/06/14 12:08:22;;;;;;;;;;;24.10;56.50;;;;;;4949206;29;19926;-65
2021/06/14 12:11:11;;;;;;;;;;;23.90;56.10;;;;;;4941734;28;19930;-66
2021/06/14 12:14:09;;;;;;;;;;;23.70;57.20;;;;;;4945826;29;20272;-66
2021/06/14 12:16:59;;;;;;;;;;;23.40;56.20;;;;;;4948437;28;20139;-66
2021/06/14 12:19:49;;;;;;;;;;;23.70;57.60;;;;;;4951918;28;19930;-65
2021/06/14 12:22:38;;;;;;;;;;;23.90;56.90;;;;;;4954413;29;19926;-66
2021/06/14 12:25:28;;;;;;;;;;;23.70;55.70;;;;;;4954255;29;20461;-66
2021/06/14 12:28:17;;;;;;;;;;;23.90;56.50;;;;;;4963552;28;19956;-67
2021/06/14 12:31:08;;;;;;;;;;;24.10;57.50;;;;;;4949024;28;20029;-66
2021/06/14 12:33:57;;;;;;;;;;;24.30;54.40;;;;;;4940924;29;20012;-65
2021/06/14 12:36:57;;;;;;;;;;;24.50;54.90;;;;;;4954653;29;19941;-66
2021/06/14 12:39:54;;;;;;;;;;;24.50;55.80;;;;;;4955057;28;19957;-65
2021/06/14 12:42:43;;;;;;;;;;;24.30;56.20;;;;;;4944180;29;19934;-65
2021/06/14 12:45:33;;;;;;;;;;;24.40;55.80;;;;;;4945250;28;19941;-65
2021/06/14 12:48:21;;;;;;;;;;;24.50;55.60;;;;;;4943484;29;20302;-65
2021/06/14 12:51:10;;;;;;;;;;;24.50;55.20;;;;;;4939250;28;19930;-65
2021/06/14 12:54:00;;;;;;;;;;;24.20;55.40;;;;;;4954211;28;19926;-65
2021/06/14 12:56:51;;;;;;;;;;;24.20;55.60;;;;;;4943732;28;20319;-65
2021/06/14 12:59:40;;;;;;;;;;;24.20;55.00;;;;;;4959790;28;20362;-66
2021/06/14 13:02:29;;;;;;;;;;;24.40;56.90;;;;;;4974067;28;20013;-65
2021/06/14 13:05:18;;;;;;;;;;;24.70;54.40;;;;;;4964335;28;19926;-66
2021/06/14 13:08:08;;;;;;;;;;;24.60;54.00;;;;;;4988090;28;19969;-66
2021/06/14 13:10:58;;;;;;;;;;;24.50;55.00;;;;;;4989876;28;19930;-66
2021/06/14 13:13:47;;;;;;;;;;;24.50;55.10;;;;;;4964044;28;20287;-65
2021/06/14 13:16:49;;;;;;;;;;;24.10;53.90;;;;;;4966639;28;19930;-66
2021/06/14 13:19:39;;;;;;;;;;;24.20;55.20;;;;;;4966917;28;19926;-65
2021/06/14 13:22:33;;;;;;;;;;;24.20;54.30;;;;;;4971580;28;19926;-66
2021/06/14 13:25:24;;;;;;;;;;;24.40;55.80;;;;;;4972626;28;19926;-66
2021/06/14 13:28:15;;;;;;;;;;;24.40;54.80;;;;;;4955431;28;19934;-66
2021/06/14 13:31:04;;;;;;;;;;;24.60;55.40;;;;;;4959024;28;19926;-65
2021/06/14 13:33:59;;;;;;;;;;;24.40;54.30;;;;;;4971536;28;19941;-66
2021/06/14 13:36:47;;;;;;;;;;;24.70;56.30;;;;;;4974537;28;19972;-66
2021/06/14 13:39:38;;;;;;;;;;;24.70;54.10;;;;;;4972673;28;20290;-65
2021/06/14 13:42:26;;;;;;;;;;;25.10;55.70;;;;;;4971371;28;19981;-66
2021/06/14 13:45:17;;;;;;;;;;;25.30;54.80;;;;;;4963512;28;19931;-66
2021/06/14 13:48:08;;;;;;;;;;;25.40;55.10;;;;;;4964270;28;20508;-65
2021/06/14 13:50:57;;;;;;;;;;;25.40;55.40;;;;;;4972140;28;19930;-65
2021/06/14 13:53:46;;;;;;;;;;;25.40;55.60;;;;;;4972014;28;19930;-65
2021/06/14 13:56:45;;;;;;;;;;;25.30;55.40;;;;;;4969112;28;20402;-65
2021/06/14 13:59:37;;;;;;;;;;;25.30;56.40;;;;;;4969241;28;19948;-66
2021/06/14 14:02:27;;;;;;;;;;;25.40;54.60;;;;;;4961799;28;19926;-66
2021/06/14 14:05:22;;;;;;;;;;;25.50;53.60;;;;;;4975019;28;19926;-66
2021/06/14 14:08:12;;;;;;;;;;;25.90;54.60;;;;;;4974090;28;19933;-66
2021/06/14 14:11:04;;;;;;;;;;;25.80;53.10;;;;;;4975770;28;19926;-66
2021/06/14 14:13:57;;;;;;;;;;;26.00;53.40;;;;;;4974678;28;19961;-66
2021/06/14 14:16:47;;;;;;;;;;;25.50;52.90;;;;;;4961191;28;19926;-66
2021/06/14 14:19:45;;;;;;;;;;;25.00;52.70;;;;;;4982985;28;20369;-66
2021/06/14 14:22:33;;;;;;;;;;;25.10;54.30;;;;;;4976258;28;20021;-65
2021/06/14 14:25:23;;;;;;;;;;;25.40;54.60;;;;;;4964251;28;19996;-65
2021/06/14 14:28:11;;;;;;;;;;;25.50;54.50;;;;;;4987310;28;19930;-66
2021/06/14 14:31:04;;;;;;;;;;;25.90;53.60;;;;;;4972566;28;19926;-65
2021/06/14 14:33:52;;;;;;;;;;;26.00;53.60;;;;;;4977202;28;20003;-65
2021/06/14 14:36:45;;;;;;;;;;;25.80;53.80;;;;;;4973427;28;19970;-66
2021/06/14 14:39:38;;;;;;;;;;;25.70;54.60;;;;;;4979081;28;19927;-65
2021/06/14 14:42:30;;;;;;;;;;;25.80;54.60;;;;;;4980302;28;20025;-65
2021/06/14 14:45:21;;;;;;;;;;;25.70;56.10;;;;;;4968116;28;19945;-64
2021/06/14 14:48:10;;;;;;;;;;;25.70;56.10;;;;;;4974041;28;20263;-66
2021/06/14 14:50:59;;;;;;;;;;;25.40;55.10;;;;;;4975004;28;19966;-66
2021/06/14 14:53:49;;;;;;;;;;;25.20;55.20;;;;;;4986399;28;19985;-67
2021/06/14 14:56:38;;;;;;;;;;;25.20;55.40;;;;;;4973227;28;19926;-66
2021/06/14 14:59:27;;;;;;;;;;;25.10;54.80;;;;;;4974886;28;20012;-65
2021/06/14 15:02:16;;;;;;;;;;;25.10;55.50;;;;;;4963044;28;19949;-66
2021/06/14 15:05:06;;;;;;;;;;;25.20;55.70;;;;;;4974314;28;19930;-65
2021/06/14 15:07:54;;;;;;;;;;;25.40;56.30;;;;;;4971810;28;20016;-65
2021/06/14 15:10:44;;;;;;;;;;;25.40;55.90;;;;;;4972817;28;19948;-66
2021/06/14 15:13:34;;;;;;;;;;;25.40;55.60;;;;;;4972908;28;19926;-66
2021/06/14 15:16:23;;;;;;;;;;;25.30;55.90;;;;;;4968291;28;19961;-67
2021/06/14 15:19:12;;;;;;;;;;;25.40;56.40;;;;;;4978528;28;19934;-66
2021/06/14 15:22:01;;;;;;;;;;;25.70;55.40;;;;;;4970185;28;20482;-66
2021/06/14 15:24:50;;;;;;;;;;;25.60;55.30;;;;;;4959718;28;20026;-66
2021/06/14 15:27:41;;;;;;;;;;;25.60;56.20;;;;;;4976842;28;19937;-67
2021/06/14 15:30:38;;;;;;;;;;;25.70;55.10;;;;;;4978137;28;19977;-67
2021/06/14 15:33:27;;;;;;;;;;;25.50;54.10;;;;;;4972747;28;20121;-66
2021/06/14 15:36:18;;;;;;;;;;;25.70;55.50;;;;;;4975081;28;19933;-66
2021/06/14 15:39:07;;;;;;;;;;;26.00;54.20;;;;;;4974513;28;20468;-66
2021/06/14 15:41:56;;;;;;;;;;;26.10;54.30;;;;;;4979688;28;19927;-67
2021/06/14 15:45:11;;;;;;;;;;;26.30;54.80;;;;;;4976425;28;19933;-66
2021/06/14 15:48:03;;;;;;;;;;;26.20;53.60;;;;;;4981618;28;19926;-67
2021/06/14 15:50:53;;;;;;;;;;;26.40;54.20;;;;;;4972621;28;20389;-66
2021/06/14 15:53:44;;;;;;;;;;;26.40;54.00;;;;;;4975813;28;19926;-66
2021/06/14 15:56:38;;;;;;;;;;;26.50;53.40;;;;;;4979114;28;19942;-66
2021/06/14 15:59:27;;;;;;;;;;;26.60;53.20;;;;;;4976275;28;19936;-66
2021/06/14 16:02:17;;;;;;;;;;;26.70;52.30;;;;;;4976241;28;19926;-66
2021/06/14 16:05:05;;;;;;;;;;;26.50;52.50;;;;;;4980226;28;19926;-66
2021/06/14 16:07:54;;;;;;;;;;;26.30;52.60;;;;;;4978863;28;19976;-66
2021/06/14 16:10:44;;;;;;;;;;;26.40;53.10;;;;;;4976841;28;19934;-68
2021/06/14 16:13:33;;;;;;;;;;;26.50;53.30;;;;;;4976597;28;20278;-65
2021/06/14 16:16:24;;;;;;;;;;;26.20;52.60;;;;;;4962337;28;19933;-66
2021/06/14 16:19:15;;;;;;;;;;;26.00;54.10;;;;;;4975117;28;19934;-66
2021/06/14 16:22:04;;;;;;;;;;;25.90;54.80;;;;;;4974205;28;19926;-66
2021/06/14 16:24:52;;;;;;;;;;;25.80;55.40;;;;;;4983486;28;19997;-66
2021/06/14 16:27:41;;;;;;;;;;;26.00;55.20;;;;;;4970773;28;19981;-65
2021/06/14 16:30:30;;;;;;;;;;;26.00;54.80;;;;;;4966401;28;20398;-66
2021/06/14 16:33:19;;;;;;;;;;;25.90;54.60;;;;;;4976532;28;20261;-65
2021/06/14 16:36:09;;;;;;;;;;;25.90;55.60;;;;;;4958300;28;19930;-66
2021/06/14 16:38:57;;;;;;;;;;;26.10;55.50;;;;;;4977830;28;19936;-66
2021/06/14 16:41:46;;;;;;;;;;;26.20;55.60;;;;;;4979125;28;19926;-66
2021/06/14 16:44:35;;;;;;;;;;;26.20;54.40;;;;;;4974333;28;20400;-65
2021/06/14 16:47:24;;;;;;;;;;;25.80;54.20;;;;;;4966709;28;19934;-68